createdAt,value
2017-12-20T05:00:50.941Z,0
2017-12-20T05:01:16.442Z,0
2017-12-20T05:01:41.904Z,0
2017-12-20T05:02:07.406Z,0
2017-12-20T05:02:32.899Z,0
2017-12-20T05:02:58.371Z,0
2017-12-20T05:03:23.832Z,0
2017-12-20T05:03:49.356Z,0
2017-12-20T05:04:14.836Z,0
2017-12-20T05:04:40.304Z,0
2017-12-20T05:05:05.806Z,0
2017-12-20T05:05:31.339Z,0
2017-12-20T05:05:56.840Z,0
2017-12-20T05:06:22.303Z,0
2017-12-20T05:07:31.008Z,0
2017-12-20T05:07:56.505Z,0
2017-12-20T05:08:22.000Z,0
2017-12-20T05:08:47.501Z,0
2017-12-20T05:09:13.036Z,0
2017-12-20T05:09:38.584Z,0
2017-12-20T05:10:04.020Z,0
2017-12-20T05:10:29.508Z,0
2017-12-20T05:10:54.992Z,0
2017-12-20T05:11:20.471Z,0
2017-12-20T05:11:45.955Z,0
2017-12-20T05:12:11.604Z,0
2017-12-20T05:12:37.085Z,0
2017-12-20T05:13:02.576Z,0
2017-12-20T05:13:28.067Z,0
2017-12-20T05:13:53.567Z,0
2017-12-20T05:14:19.066Z,0
2017-12-20T05:14:44.533Z,0
2017-12-20T05:15:10.035Z,0
2017-12-20T05:15:35.504Z,0
2017-12-20T05:16:00.993Z,0
2017-12-20T05:16:26.469Z,0
2017-12-20T05:16:51.978Z,0
2017-12-20T05:17:17.475Z,0
2017-12-20T05:17:42.962Z,0
2017-12-20T05:18:08.436Z,0
2017-12-20T05:18:33.949Z,0
2017-12-20T05:18:59.471Z,0
2017-12-20T05:20:08.156Z,0
2017-12-20T05:20:33.648Z,0
2017-12-20T05:20:59.144Z,0
2017-12-20T05:21:24.643Z,0
2017-12-20T05:21:50.136Z,0
2017-12-20T05:22:15.618Z,0
2017-12-20T05:22:41.129Z,0
2017-12-20T05:23:06.636Z,0
2017-12-20T05:23:32.123Z,0
2017-12-20T05:23:57.623Z,0
2017-12-20T05:24:23.096Z,0
2017-12-20T05:24:48.573Z,0
2017-12-20T05:25:14.135Z,0
2017-12-20T05:25:39.572Z,0
2017-12-20T05:26:05.143Z,0
2017-12-20T05:26:30.660Z,0
2017-12-20T05:27:54.156Z,0
2017-12-20T05:28:19.650Z,0
2017-12-20T05:28:45.143Z,0
2017-12-20T05:29:10.641Z,0
2017-12-20T05:29:36.135Z,0
2017-12-20T05:30:01.614Z,0
2017-12-20T05:30:27.106Z,0
2017-12-20T05:30:52.597Z,0
2017-12-20T05:31:18.066Z,0
2017-12-20T05:31:43.545Z,0
2017-12-20T05:32:09.002Z,0
2017-12-20T05:32:34.472Z,0
2017-12-20T05:32:59.975Z,0
2017-12-20T05:33:25.455Z,0
2017-12-20T05:33:50.933Z,0
2017-12-20T05:34:16.450Z,0
2017-12-20T05:34:41.934Z,0
2017-12-20T05:35:07.425Z,0
2017-12-20T05:35:32.915Z,0
2017-12-20T05:35:58.409Z,0
2017-12-20T05:36:23.909Z,0
2017-12-20T05:36:49.401Z,0
2017-12-20T05:37:14.918Z,0
2017-12-20T05:37:40.419Z,0
2017-12-20T05:38:05.905Z,0
2017-12-20T05:38:31.407Z,0
2017-12-20T05:38:56.907Z,0
2017-12-20T05:39:22.410Z,0
2017-12-20T05:39:47.909Z,0
2017-12-20T05:40:13.407Z,0
2017-12-20T05:40:38.902Z,0
2017-12-20T05:41:04.406Z,0
2017-12-20T05:41:29.931Z,0
2017-12-20T05:41:55.449Z,0
2017-12-20T05:42:20.897Z,0
2017-12-20T05:42:46.408Z,0
2017-12-20T05:43:11.917Z,0
2017-12-20T05:43:37.406Z,0
2017-12-20T05:44:02.893Z,0
2017-12-20T05:44:28.402Z,0
2017-12-20T05:44:53.876Z,0
2017-12-20T05:45:19.394Z,0
2017-12-20T05:45:44.868Z,0
2017-12-20T05:46:58.647Z,0
2017-12-20T05:47:24.141Z,0
2017-12-20T05:47:49.642Z,0
2017-12-20T05:48:15.132Z,0
2017-12-20T05:48:40.623Z,0
2017-12-20T05:49:06.116Z,0
2017-12-20T05:49:31.619Z,0
2017-12-20T05:49:57.117Z,0
2017-12-20T05:50:22.627Z,0
2017-12-20T05:50:48.118Z,0
2017-12-20T05:51:13.605Z,0
2017-12-20T05:51:39.116Z,0
2017-12-20T05:52:04.618Z,0
2017-12-20T05:52:30.112Z,0
2017-12-20T05:52:55.579Z,0
2017-12-20T05:53:21.069Z,0
2017-12-20T05:53:46.570Z,0
2017-12-20T05:54:12.087Z,0
2017-12-20T05:54:37.575Z,0
2017-12-20T05:55:03.049Z,0
2017-12-20T05:56:21.951Z,0
2017-12-20T05:56:47.440Z,0
2017-12-20T05:57:12.913Z,0
2017-12-20T05:57:38.414Z,0
2017-12-20T05:58:03.902Z,0
2017-12-20T05:58:29.375Z,0
2017-12-20T05:58:54.863Z,0
2017-12-20T05:59:20.400Z,0
2017-12-20T05:59:45.899Z,0
2017-12-20T06:01:04.322Z,0
2017-12-20T06:01:29.805Z,0
2017-12-20T06:01:55.280Z,0
2017-12-20T06:02:20.759Z,0
2017-12-20T06:02:46.260Z,0
2017-12-20T06:03:11.739Z,0
2017-12-20T06:03:37.209Z,0
2017-12-20T06:04:02.690Z,0
2017-12-20T06:04:28.160Z,0
2017-12-20T06:04:53.646Z,0
2017-12-20T06:05:19.144Z,0
2017-12-20T06:05:44.648Z,0
2017-12-20T06:06:10.147Z,0
2017-12-20T06:06:35.641Z,0
2017-12-20T06:07:01.195Z,0
2017-12-20T06:07:26.690Z,0
2017-12-20T06:07:52.192Z,0
2017-12-20T06:08:17.669Z,0
2017-12-20T06:09:31.519Z,0
2017-12-20T06:09:57.028Z,0
2017-12-20T06:10:22.517Z,0
2017-12-20T06:10:47.996Z,0
2017-12-20T06:11:13.505Z,0
2017-12-20T06:12:37.542Z,0
2017-12-20T06:13:03.049Z,0
2017-12-20T06:13:28.545Z,0
2017-12-20T06:13:54.052Z,0
2017-12-20T06:14:19.561Z,0
2017-12-20T06:14:45.029Z,0
2017-12-20T06:15:10.497Z,0
2017-12-20T06:15:35.996Z,0
2017-12-20T06:16:01.480Z,0
2017-12-20T06:16:26.939Z,0
2017-12-20T06:17:35.652Z,0
2017-12-20T06:18:01.145Z,0
2017-12-20T06:18:26.634Z,0
2017-12-20T06:20:38.951Z,0
2017-12-20T06:21:04.441Z,0
2017-12-20T06:21:29.928Z,0
2017-12-20T06:21:55.402Z,0
2017-12-20T06:22:20.881Z,0
2017-12-20T06:22:46.381Z,0
2017-12-20T06:23:11.857Z,0
2017-12-20T06:23:37.398Z,0
2017-12-20T06:24:02.860Z,0
2017-12-20T06:24:28.325Z,0
2017-12-20T06:24:53.810Z,0
2017-12-20T06:25:19.316Z,0
2017-12-20T06:25:44.797Z,0
2017-12-20T06:26:10.306Z,0
2017-12-20T06:26:35.825Z,0
2017-12-20T06:27:01.363Z,0
2017-12-20T06:27:26.833Z,0
2017-12-20T06:27:52.332Z,0
2017-12-20T06:28:17.812Z,0
2017-12-20T06:28:43.288Z,0
2017-12-20T06:29:08.780Z,0
2017-12-20T06:29:34.245Z,0
2017-12-20T06:29:59.881Z,0
2017-12-20T06:30:25.396Z,0
2017-12-20T06:30:50.861Z,0
2017-12-20T06:31:16.389Z,0
2017-12-20T06:31:41.886Z,0
2017-12-20T06:32:07.346Z,0
2017-12-20T06:32:32.836Z,0
2017-12-20T06:32:58.328Z,0
2017-12-20T06:33:23.773Z,0
2017-12-20T06:33:49.273Z,0
2017-12-20T06:34:14.760Z,0
2017-12-20T06:34:40.266Z,0
2017-12-20T06:35:05.784Z,0
2017-12-20T06:35:31.255Z,0
2017-12-20T06:35:56.756Z,0
2017-12-20T06:36:22.265Z,0
2017-12-20T06:36:47.745Z,0
2017-12-20T06:37:13.249Z,0
2017-12-20T06:37:38.731Z,0
2017-12-20T06:38:04.229Z,0
2017-12-20T06:38:29.730Z,0
2017-12-20T06:38:55.190Z,0
2017-12-20T06:39:20.714Z,0
2017-12-20T06:39:46.210Z,0
2017-12-20T06:40:11.712Z,0
2017-12-20T06:40:37.222Z,0
2017-12-20T06:41:02.706Z,0
2017-12-20T06:41:28.247Z,0
2017-12-20T06:41:53.731Z,0
2017-12-20T06:42:19.217Z,0
2017-12-20T06:42:44.726Z,0
2017-12-20T06:43:10.234Z,0
2017-12-20T06:43:35.716Z,0
2017-12-20T06:44:01.218Z,0
2017-12-20T06:44:26.697Z,0
2017-12-20T06:44:52.185Z,0
2017-12-20T06:45:17.668Z,0
2017-12-20T06:46:41.633Z,0
2017-12-20T06:47:07.108Z,0
2017-12-20T06:47:32.695Z,0
2017-12-20T06:47:58.206Z,0
2017-12-20T06:48:23.874Z,0
2017-12-20T06:48:49.474Z,0
2017-12-20T06:49:15.091Z,0
2017-12-20T06:49:40.580Z,0
2017-12-20T06:50:06.087Z,0
2017-12-20T06:50:31.565Z,0
2017-12-20T06:50:57.057Z,0
2017-12-20T06:51:22.568Z,0
2017-12-20T06:51:48.040Z,0
2017-12-20T06:52:13.573Z,0
2017-12-20T06:52:39.032Z,0
2017-12-20T06:53:04.461Z,0
2017-12-20T06:53:29.927Z,0
2017-12-20T06:53:55.412Z,0
2017-12-20T06:54:20.917Z,0
2017-12-20T06:54:46.406Z,0
2017-12-20T06:55:11.858Z,0
2017-12-20T06:55:37.371Z,0
2017-12-20T06:56:02.850Z,0
2017-12-20T06:56:28.353Z,0
2017-12-20T06:56:53.837Z,0
2017-12-20T06:57:19.244Z,0
2017-12-20T06:57:44.724Z,0
2017-12-20T06:58:10.211Z,0
2017-12-20T06:58:35.689Z,0
2017-12-20T06:59:01.206Z,0
2017-12-20T06:59:26.673Z,0
2017-12-20T06:59:52.156Z,0
2017-12-20T07:00:17.643Z,0
2017-12-20T07:00:43.128Z,0
2017-12-20T07:01:08.630Z,0
2017-12-20T07:01:34.095Z,0
2017-12-20T07:01:59.632Z,0
2017-12-20T07:02:25.104Z,0
2017-12-20T07:02:50.590Z,4
2017-12-20T07:03:16.044Z,4
2017-12-20T07:03:41.501Z,4
2017-12-20T07:04:06.982Z,4
2017-12-20T07:04:32.472Z,0
2017-12-20T07:05:51.411Z,4
2017-12-20T07:06:16.920Z,4
2017-12-20T07:06:42.389Z,4
2017-12-20T07:07:07.895Z,4
2017-12-20T07:07:33.391Z,4
2017-12-20T07:07:58.864Z,4
2017-12-20T07:08:24.352Z,4
2017-12-20T07:08:49.855Z,4
2017-12-20T07:09:15.354Z,4
2017-12-20T07:09:40.844Z,4
2017-12-20T07:10:06.315Z,4
2017-12-20T07:10:31.822Z,4
2017-12-20T07:10:57.358Z,4
2017-12-20T07:11:22.900Z,4
2017-12-20T07:11:48.374Z,4
2017-12-20T07:12:13.865Z,4
2017-12-20T07:12:39.367Z,4
2017-12-20T07:13:04.839Z,8
2017-12-20T07:13:30.301Z,8
2017-12-20T07:14:44.071Z,8
2017-12-20T07:15:09.558Z,8
2017-12-20T07:15:35.054Z,8
2017-12-20T07:16:00.545Z,8
2017-12-20T07:17:04.133Z,12
2017-12-20T07:17:29.611Z,12
2017-12-20T07:17:55.091Z,12
2017-12-20T07:18:20.584Z,12
2017-12-20T07:18:46.092Z,16
2017-12-20T07:19:11.613Z,12
2017-12-20T07:19:37.185Z,16
2017-12-20T07:20:02.705Z,16
2017-12-20T07:20:28.195Z,16
2017-12-20T07:20:53.667Z,16
2017-12-20T07:22:17.674Z,20
2017-12-20T07:22:43.163Z,20
2017-12-20T07:23:08.662Z,24
2017-12-20T07:23:34.140Z,24
2017-12-20T07:23:59.652Z,28
2017-12-20T07:24:25.181Z,28
2017-12-20T07:24:50.650Z,32
2017-12-20T07:25:16.137Z,32
2017-12-20T07:25:41.670Z,32
2017-12-20T07:26:07.157Z,36
2017-12-20T07:26:32.658Z,36
2017-12-20T07:26:58.127Z,36
2017-12-20T07:27:23.635Z,40
2017-12-20T07:27:49.114Z,40
2017-12-20T07:28:14.607Z,40
2017-12-20T07:28:40.088Z,40
2017-12-20T07:29:05.614Z,44
2017-12-20T07:29:31.106Z,44
2017-12-20T07:29:56.594Z,52
2017-12-20T07:30:22.037Z,52
2017-12-20T07:30:47.551Z,52
2017-12-20T07:31:13.073Z,52
2017-12-20T07:31:38.584Z,52
2017-12-20T07:32:04.052Z,52
2017-12-20T07:32:29.587Z,56
2017-12-20T07:32:55.045Z,60
2017-12-20T07:33:20.536Z,60
2017-12-20T07:33:46.080Z,60
2017-12-20T07:34:11.600Z,60
2017-12-20T07:34:37.071Z,64
2017-12-20T07:35:02.570Z,68
2017-12-20T07:35:28.111Z,68
2017-12-20T07:35:53.531Z,76
2017-12-20T07:37:07.332Z,88
2017-12-20T07:37:32.834Z,88
2017-12-20T07:37:58.343Z,88
2017-12-20T07:38:23.828Z,92
2017-12-20T07:38:49.310Z,96
2017-12-20T07:39:14.824Z,104
2017-12-20T07:39:40.314Z,104
2017-12-20T07:40:05.830Z,108
2017-12-20T07:40:31.331Z,116
2017-12-20T07:40:56.811Z,120
2017-12-20T07:41:22.305Z,120
2017-12-20T07:41:47.794Z,120
2017-12-20T07:42:13.298Z,120
2017-12-20T07:42:38.818Z,128
2017-12-20T07:43:04.367Z,128
2017-12-20T07:43:29.870Z,132
2017-12-20T07:43:55.372Z,128
2017-12-20T07:44:20.868Z,132
2017-12-20T07:44:46.381Z,140
2017-12-20T07:45:11.859Z,148
2017-12-20T07:45:37.334Z,156
2017-12-20T07:46:02.854Z,160
2017-12-20T07:46:28.329Z,164
2017-12-20T07:46:53.808Z,172
2017-12-20T07:47:19.304Z,176
2017-12-20T07:47:44.810Z,180
2017-12-20T07:48:10.306Z,188
2017-12-20T07:48:35.785Z,188
2017-12-20T07:49:01.261Z,196
2017-12-20T07:49:26.746Z,200
2017-12-20T07:49:52.293Z,204
2017-12-20T07:50:17.792Z,204
2017-12-20T07:50:43.307Z,220
2017-12-20T07:51:08.773Z,228
2017-12-20T07:51:34.276Z,232
2017-12-20T07:51:59.833Z,248
2017-12-20T07:52:25.470Z,252
2017-12-20T07:52:50.943Z,260
2017-12-20T07:53:16.421Z,264
2017-12-20T07:53:41.935Z,264
2017-12-20T07:54:07.420Z,260
2017-12-20T07:54:32.909Z,276
2017-12-20T07:54:58.414Z,308
2017-12-20T07:55:23.924Z,336
2017-12-20T07:55:49.436Z,356
2017-12-20T07:56:15.054Z,368
2017-12-20T07:56:40.678Z,384
2017-12-20T07:57:06.153Z,396
2017-12-20T07:57:31.651Z,412
2017-12-20T07:57:57.125Z,416
2017-12-20T07:58:22.812Z,420
2017-12-20T07:58:48.308Z,444
2017-12-20T07:59:13.837Z,456
2017-12-20T07:59:39.420Z,468
2017-12-20T08:00:04.947Z,476
2017-12-20T08:00:30.471Z,476
2017-12-20T08:00:55.939Z,480
2017-12-20T08:01:21.436Z,480
2017-12-20T08:01:46.901Z,480
2017-12-20T08:02:12.598Z,496
2017-12-20T08:02:38.098Z,508
2017-12-20T08:03:03.602Z,512
2017-12-20T08:03:29.483Z,500
2017-12-20T08:03:54.888Z,504
2017-12-20T08:04:20.482Z,504
2017-12-20T08:04:45.921Z,480
2017-12-20T08:05:11.455Z,464
2017-12-20T08:05:36.912Z,464
2017-12-20T08:06:02.385Z,464
2017-12-20T08:06:27.909Z,452
2017-12-20T08:06:53.402Z,448
2017-12-20T08:07:18.962Z,444
2017-12-20T08:07:44.461Z,432
2017-12-20T08:08:09.957Z,432
2017-12-20T08:08:35.455Z,448
2017-12-20T08:09:00.921Z,480
2017-12-20T08:09:26.465Z,480
2017-12-20T08:09:51.911Z,476
2017-12-20T08:10:17.424Z,468
2017-12-20T08:10:42.906Z,452
2017-12-20T08:11:08.397Z,440
2017-12-20T08:11:33.904Z,452
2017-12-20T08:11:59.396Z,468
2017-12-20T08:12:24.905Z,500
2017-12-20T08:12:50.396Z,512
2017-12-20T08:13:15.937Z,520
2017-12-20T08:13:41.431Z,524
2017-12-20T08:14:06.984Z,512
2017-12-20T08:14:32.727Z,516
2017-12-20T08:14:58.157Z,536
2017-12-20T08:15:23.669Z,548
2017-12-20T08:16:42.653Z,560
2017-12-20T08:17:08.169Z,560
2017-12-20T08:17:33.681Z,564
2017-12-20T08:17:59.141Z,568
2017-12-20T08:18:24.676Z,580
2017-12-20T08:18:50.300Z,584
2017-12-20T08:19:15.848Z,604
2017-12-20T08:19:41.270Z,640
2017-12-20T08:20:06.755Z,672
2017-12-20T08:20:32.218Z,688
2017-12-20T08:20:57.731Z,696
2017-12-20T08:21:23.188Z,732
2017-12-20T08:21:48.711Z,764
2017-12-20T08:22:14.208Z,776
2017-12-20T08:22:39.681Z,780
2017-12-20T08:23:05.201Z,756
2017-12-20T08:23:30.655Z,716
2017-12-20T08:23:56.137Z,672
2017-12-20T08:24:21.626Z,636
2017-12-20T08:24:47.099Z,624
2017-12-20T08:25:12.588Z,624
2017-12-20T08:25:38.040Z,636
2017-12-20T08:26:03.536Z,636
2017-12-20T08:26:29.020Z,664
2017-12-20T08:26:54.507Z,680
2017-12-20T08:27:20.005Z,688
2017-12-20T08:27:45.653Z,688
2017-12-20T08:28:11.270Z,692
2017-12-20T08:28:36.853Z,668
2017-12-20T08:29:02.311Z,644
2017-12-20T08:31:51.366Z,640
2017-12-20T08:32:16.858Z,628
2017-12-20T08:32:42.316Z,612
2017-12-20T08:33:07.809Z,596
2017-12-20T08:33:33.322Z,572
2017-12-20T08:33:58.800Z,556
2017-12-20T08:34:24.267Z,540
2017-12-20T08:34:49.795Z,536
2017-12-20T08:35:15.266Z,532
2017-12-20T08:35:40.758Z,536
2017-12-20T08:36:06.266Z,544
2017-12-20T08:36:31.762Z,560
2017-12-20T08:36:57.360Z,576
2017-12-20T08:37:23.111Z,592
2017-12-20T08:37:48.714Z,600
2017-12-20T08:38:14.204Z,632
2017-12-20T08:38:39.767Z,664
2017-12-20T08:39:05.228Z,696
2017-12-20T08:39:30.761Z,720
2017-12-20T08:39:56.231Z,748
2017-12-20T08:41:15.439Z,772
2017-12-20T08:41:40.956Z,760
2017-12-20T08:42:06.430Z,756
2017-12-20T08:43:10.012Z,816
2017-12-20T08:43:35.506Z,844
2017-12-20T08:44:01.006Z,852
2017-12-20T08:44:26.489Z,884
2017-12-20T08:44:52.039Z,896
2017-12-20T08:45:17.528Z,900
2017-12-20T08:45:42.981Z,904
2017-12-20T08:46:08.462Z,892
2017-12-20T08:46:33.931Z,888
2017-12-20T08:46:59.462Z,872
2017-12-20T08:47:24.972Z,856
2017-12-20T08:47:50.474Z,840
2017-12-20T08:48:15.973Z,824
2017-12-20T08:48:41.472Z,796
2017-12-20T08:49:07.012Z,760
2017-12-20T08:49:32.493Z,720
2017-12-20T08:49:57.940Z,696
2017-12-20T08:50:23.403Z,680
2017-12-20T08:50:48.911Z,660
2017-12-20T08:51:14.389Z,656
2017-12-20T08:51:39.942Z,656
2017-12-20T08:52:05.411Z,672
2017-12-20T08:52:30.907Z,704
2017-12-20T08:52:56.401Z,736
2017-12-20T08:53:21.942Z,756
2017-12-20T08:53:47.448Z,772
2017-12-20T08:54:12.978Z,788
2017-12-20T08:54:38.499Z,804
2017-12-20T08:55:04.032Z,840
2017-12-20T08:55:29.583Z,892
2017-12-20T08:55:55.084Z,932
2017-12-20T08:56:20.579Z,960
2017-12-20T08:56:46.084Z,984
2017-12-20T08:57:11.592Z,1016
2017-12-20T08:57:37.089Z,1056
2017-12-20T08:58:02.568Z,1072
2017-12-20T08:58:28.062Z,1064
2017-12-20T08:58:53.572Z,1044
2017-12-20T08:59:19.034Z,1028
2017-12-20T08:59:44.513Z,1036
2017-12-20T09:00:10.002Z,1056
2017-12-20T09:00:35.501Z,1080
2017-12-20T09:01:01.035Z,1136
2017-12-20T09:01:26.502Z,1168
2017-12-20T09:01:51.991Z,1184
2017-12-20T09:02:17.514Z,1208
2017-12-20T09:02:43.048Z,1240
2017-12-20T09:03:08.532Z,1264
2017-12-20T09:03:33.996Z,1264
2017-12-20T09:03:59.484Z,1276
2017-12-20T09:04:24.986Z,1312
2017-12-20T09:04:50.481Z,1336
2017-12-20T09:05:15.992Z,1380
2017-12-20T09:05:41.493Z,1420
2017-12-20T09:06:06.955Z,1448
2017-12-20T09:06:32.479Z,1472
2017-12-20T09:06:57.977Z,1508
2017-12-20T09:07:23.517Z,1528
2017-12-20T09:07:49.009Z,1500
2017-12-20T09:08:14.470Z,1484
2017-12-20T09:08:39.926Z,1508
2017-12-20T09:09:05.431Z,1540
2017-12-20T09:09:31.054Z,1576
2017-12-20T09:09:56.532Z,1616
2017-12-20T09:10:22.007Z,1672
2017-12-20T09:10:47.463Z,1736
2017-12-20T09:11:12.985Z,1772
2017-12-20T09:11:38.494Z,1784
2017-12-20T09:12:03.999Z,1824
2017-12-20T09:13:12.697Z,2012
2017-12-20T09:13:38.212Z,2032
2017-12-20T09:14:03.695Z,2084
2017-12-20T09:14:29.146Z,2080
2017-12-20T09:14:54.633Z,2068
2017-12-20T09:15:20.181Z,2032
2017-12-20T09:15:45.679Z,1996
2017-12-20T09:16:11.164Z,1944
2017-12-20T09:16:36.636Z,1892
2017-12-20T09:17:02.110Z,1896
2017-12-20T09:17:27.640Z,1916
2017-12-20T09:17:53.158Z,1924
2017-12-20T09:18:18.659Z,1912
2017-12-20T09:18:44.156Z,1856
2017-12-20T09:19:09.625Z,1796
2017-12-20T09:19:35.155Z,1748
2017-12-20T09:20:00.662Z,1724
2017-12-20T09:20:26.141Z,1728
2017-12-20T09:20:51.643Z,1700
2017-12-20T09:21:17.139Z,1692
2017-12-20T09:21:42.629Z,1712
2017-12-20T09:22:08.238Z,1748
2017-12-20T09:22:33.755Z,1760
2017-12-20T09:22:59.275Z,1776
2017-12-20T09:23:24.764Z,1796
2017-12-20T09:23:50.226Z,1836
2017-12-20T09:24:15.687Z,1892
2017-12-20T09:24:41.184Z,1944
2017-12-20T09:25:44.806Z,1968
2017-12-20T09:26:10.317Z,1976
2017-12-20T09:26:35.811Z,1972
2017-12-20T09:27:01.307Z,2016
2017-12-20T09:27:26.815Z,2008
2017-12-20T09:27:52.300Z,1996
2017-12-20T09:28:17.786Z,2000
2017-12-20T09:28:43.310Z,1972
2017-12-20T09:29:08.792Z,1908
2017-12-20T09:29:34.315Z,1892
2017-12-20T09:29:59.804Z,1848
2017-12-20T09:30:25.304Z,1788
2017-12-20T09:30:50.776Z,1728
2017-12-20T09:31:16.272Z,1676
2017-12-20T09:31:41.751Z,1676
2017-12-20T09:32:07.277Z,1728
2017-12-20T09:32:32.766Z,1888
2017-12-20T09:32:58.295Z,1984
2017-12-20T09:33:23.777Z,1964
2017-12-20T09:33:49.382Z,1864
2017-12-20T09:34:14.896Z,1844
2017-12-20T09:34:40.360Z,1980
2017-12-20T09:35:05.964Z,2064
2017-12-20T09:35:31.531Z,2032
2017-12-20T09:35:57.039Z,1948
2017-12-20T09:36:22.544Z,1876
2017-12-20T09:36:48.011Z,1840
2017-12-20T09:37:13.519Z,1928
2017-12-20T09:37:39.013Z,1924
2017-12-20T09:38:04.553Z,1884
2017-12-20T09:38:30.036Z,1856
2017-12-20T09:38:55.501Z,1820
2017-12-20T09:39:20.985Z,1824
2017-12-20T09:39:46.496Z,1808
2017-12-20T09:40:11.969Z,1756
2017-12-20T09:40:37.428Z,1704
2017-12-20T09:41:02.936Z,1768
2017-12-20T09:41:28.425Z,1892
2017-12-20T09:41:53.928Z,1952
2017-12-20T09:42:19.429Z,1944
2017-12-20T09:42:44.941Z,1884
2017-12-20T09:43:10.399Z,1848
2017-12-20T09:43:35.896Z,1748
2017-12-20T09:44:01.393Z,1668
2017-12-20T09:44:26.872Z,1652
2017-12-20T09:44:52.726Z,1652
2017-12-20T09:45:18.221Z,1628
2017-12-20T09:45:43.722Z,1636
2017-12-20T09:46:09.236Z,1684
2017-12-20T09:46:34.771Z,1732
2017-12-20T09:47:00.227Z,1688
2017-12-20T09:47:25.687Z,1676
2017-12-20T09:47:51.229Z,1684
2017-12-20T09:48:16.615Z,1748
2017-12-20T09:48:42.102Z,1800
2017-12-20T09:49:07.573Z,1760
2017-12-20T09:49:33.057Z,1720
2017-12-20T09:49:58.506Z,1692
2017-12-20T09:50:24.083Z,1676
2017-12-20T09:50:49.483Z,1712
2017-12-20T09:51:14.933Z,1812
2017-12-20T09:51:40.381Z,1876
2017-12-20T09:52:05.802Z,1960
2017-12-20T09:52:31.249Z,2028
2017-12-20T09:52:56.782Z,2020
2017-12-20T09:53:22.289Z,2028
2017-12-20T09:53:47.729Z,2072
2017-12-20T09:54:13.241Z,2092
2017-12-20T09:54:38.757Z,2100
2017-12-20T09:55:47.460Z,2180
2017-12-20T09:56:12.977Z,2192
2017-12-20T09:56:38.461Z,2216
2017-12-20T09:57:03.968Z,2292
2017-12-20T09:57:29.509Z,2332
2017-12-20T09:57:55.006Z,2444
2017-12-20T09:58:20.541Z,2460
2017-12-20T09:58:46.061Z,2400
2017-12-20T09:59:11.518Z,2408
2017-12-20T09:59:37.024Z,2456
2017-12-20T10:00:02.537Z,2468
2017-12-20T10:00:28.059Z,2464
2017-12-20T10:00:53.545Z,2544
2017-12-20T10:01:19.035Z,2632
2017-12-20T10:01:44.535Z,2672
2017-12-20T10:02:10.012Z,2708
2017-12-20T10:02:35.540Z,2796
2017-12-20T10:03:01.018Z,2852
2017-12-20T10:03:26.555Z,2896
2017-12-20T10:03:52.019Z,3012
2017-12-20T10:04:17.537Z,3116
2017-12-20T10:04:43.051Z,3124
2017-12-20T10:05:08.525Z,3080
2017-12-20T10:05:34.012Z,3012
2017-12-20T10:06:52.979Z,2900
2017-12-20T10:07:18.486Z,2876
2017-12-20T10:07:43.977Z,2856
2017-12-20T10:08:09.536Z,2864
2017-12-20T10:08:34.974Z,2864
2017-12-20T10:09:00.551Z,2864
2017-12-20T10:09:26.058Z,2864
2017-12-20T10:09:51.519Z,2856
2017-12-20T10:10:17.308Z,2856
2017-12-20T10:10:42.885Z,2832
2017-12-20T10:11:08.353Z,2820
2017-12-20T10:11:33.863Z,2720
2017-12-20T10:11:59.370Z,2660
2017-12-20T10:12:24.865Z,2616
2017-12-20T10:12:50.381Z,2544
2017-12-20T10:13:15.862Z,2452
2017-12-20T10:13:41.379Z,2508
2017-12-20T10:14:06.866Z,2752
2017-12-20T10:14:32.436Z,3040
2017-12-20T10:14:57.935Z,3176
2017-12-20T10:15:23.404Z,3072
2017-12-20T10:15:49.035Z,3004
2017-12-20T10:16:14.549Z,2912
2017-12-20T10:16:40.138Z,2796
2017-12-20T10:17:05.628Z,2820
2017-12-20T10:17:31.089Z,2904
2017-12-20T10:17:56.722Z,2912
2017-12-20T10:18:22.133Z,2952
2017-12-20T10:18:47.619Z,2996
2017-12-20T10:19:13.128Z,2952
2017-12-20T10:19:38.656Z,2888
2017-12-20T10:20:04.151Z,2880
2017-12-20T10:20:29.731Z,2792
2017-12-20T10:20:55.281Z,2636
2017-12-20T10:21:20.766Z,2584
2017-12-20T10:21:46.303Z,2600
2017-12-20T10:22:11.811Z,2684
2017-12-20T10:23:30.834Z,2604
2017-12-20T10:23:56.335Z,2608
2017-12-20T10:24:21.838Z,2592
2017-12-20T10:24:47.353Z,2628
2017-12-20T10:25:12.896Z,2684
2017-12-20T10:25:38.413Z,2696
2017-12-20T10:26:04.226Z,2640
2017-12-20T10:26:29.888Z,2600
2017-12-20T10:26:55.322Z,2524
2017-12-20T10:28:14.237Z,2280
2017-12-20T10:28:39.706Z,2308
2017-12-20T10:29:05.231Z,2328
2017-12-20T10:29:30.703Z,2300
2017-12-20T10:29:56.193Z,2244
2017-12-20T10:30:21.695Z,2192
2017-12-20T10:30:47.193Z,2168
2017-12-20T10:31:12.699Z,2220
2017-12-20T10:31:38.209Z,2280
2017-12-20T10:32:03.738Z,2376
2017-12-20T10:32:29.293Z,2408
2017-12-20T10:32:54.773Z,2416
2017-12-20T10:33:20.246Z,2464
2017-12-20T10:33:45.707Z,2392
2017-12-20T10:34:11.179Z,2200
2017-12-20T10:34:36.697Z,2104
2017-12-20T10:35:02.337Z,2088
2017-12-20T10:35:27.748Z,2072
2017-12-20T10:35:53.284Z,2028
2017-12-20T10:36:18.841Z,2028
2017-12-20T10:36:44.268Z,2044
2017-12-20T10:37:09.820Z,1984
2017-12-20T10:37:35.274Z,2028
2017-12-20T10:38:00.804Z,2168
2017-12-20T10:38:26.260Z,2128
2017-12-20T10:38:51.740Z,2032
2017-12-20T10:39:17.238Z,2168
2017-12-20T10:39:42.764Z,2216
2017-12-20T10:40:08.258Z,2220
2017-12-20T10:40:33.718Z,2240
2017-12-20T10:40:59.193Z,2252
2017-12-20T10:41:24.707Z,2208
2017-12-20T10:41:50.224Z,2224
2017-12-20T10:42:15.699Z,2276
2017-12-20T10:42:41.173Z,2188
2017-12-20T10:43:06.616Z,2116
2017-12-20T10:43:32.110Z,2096
2017-12-20T10:43:57.605Z,2056
2017-12-20T10:44:23.100Z,2068
2017-12-20T10:44:48.620Z,2128
2017-12-20T10:45:14.118Z,2136
2017-12-20T10:45:39.610Z,2124
2017-12-20T10:46:05.109Z,2148
2017-12-20T10:46:30.702Z,2196
2017-12-20T10:46:56.192Z,2236
2017-12-20T10:47:21.693Z,2196
2017-12-20T10:47:47.225Z,2148
2017-12-20T10:48:12.712Z,2244
2017-12-20T10:48:38.198Z,2356
2017-12-20T10:49:51.974Z,2208
2017-12-20T10:50:17.468Z,2260
2017-12-20T10:50:42.964Z,2220
2017-12-20T10:51:08.487Z,2288
2017-12-20T10:51:33.935Z,2436
2017-12-20T10:51:59.468Z,2524
2017-12-20T10:52:24.962Z,2488
2017-12-20T10:52:50.418Z,2472
2017-12-20T10:53:15.946Z,2540
2017-12-20T10:53:41.431Z,2568
2017-12-20T10:54:06.972Z,2544
2017-12-20T10:54:32.450Z,2628
2017-12-20T10:54:57.796Z,2612
2017-12-20T10:55:23.260Z,2488
2017-12-20T10:55:48.708Z,2332
2017-12-20T10:56:14.210Z,2140
2017-12-20T10:56:39.681Z,2068
2017-12-20T10:57:05.125Z,2128
2017-12-20T10:57:30.595Z,2112
2017-12-20T10:57:56.101Z,2124
2017-12-20T10:58:21.560Z,2164
2017-12-20T10:58:47.032Z,2252
2017-12-20T10:59:12.471Z,2396
2017-12-20T10:59:37.938Z,2384
2017-12-20T11:00:03.414Z,2344
2017-12-20T11:00:28.920Z,2324
2017-12-20T11:00:54.428Z,2300
2017-12-20T11:02:08.241Z,2476
2017-12-20T11:02:33.817Z,2536
2017-12-20T11:02:59.326Z,2516
2017-12-20T11:03:24.788Z,2520
2017-12-20T11:04:43.694Z,2660
2017-12-20T11:05:09.183Z,2760
2017-12-20T11:05:34.711Z,2860
2017-12-20T11:06:00.166Z,2936
2017-12-20T11:06:25.671Z,2944
2017-12-20T11:06:51.196Z,2916
2017-12-20T11:07:16.669Z,2884
2017-12-20T11:07:42.230Z,2940
2017-12-20T11:08:07.718Z,3056
2017-12-20T11:09:16.464Z,3332
2017-12-20T11:09:41.943Z,3256
2017-12-20T11:10:07.450Z,3232
2017-12-20T11:10:32.950Z,3232
2017-12-20T11:10:58.438Z,3244
2017-12-20T11:11:23.939Z,3188
2017-12-20T11:11:49.388Z,3088
2017-12-20T11:12:14.889Z,3068
2017-12-20T11:12:40.393Z,3140
2017-12-20T11:13:05.868Z,3144
2017-12-20T11:13:31.404Z,3148
2017-12-20T11:13:56.923Z,3272
2017-12-20T11:14:22.447Z,3452
2017-12-20T11:14:47.922Z,3524
2017-12-20T11:15:13.394Z,3492
2017-12-20T11:15:38.921Z,3416
2017-12-20T11:16:04.420Z,3308
2017-12-20T11:16:29.902Z,3308
2017-12-20T11:16:55.405Z,3408
2017-12-20T11:17:20.889Z,3544
2017-12-20T11:17:46.442Z,3716
2017-12-20T11:18:11.937Z,3840
2017-12-20T11:18:37.442Z,3944
2017-12-20T11:19:02.942Z,4004
2017-12-20T11:19:28.436Z,4056
2017-12-20T11:19:53.931Z,4072
2017-12-20T11:20:19.416Z,4044
2017-12-20T11:20:44.902Z,3992
2017-12-20T11:21:10.380Z,3888
2017-12-20T11:21:35.852Z,3740
2017-12-20T11:22:01.332Z,3616
2017-12-20T11:22:26.828Z,3548
2017-12-20T11:22:52.352Z,3528
2017-12-20T11:23:17.879Z,3512